sensor_id;sensor_type;location;lat;lon;timestamp;P1;durP1;ratioP1;P2;durP2;ratioP2
20443;SDS011;10381;53.730;10.010;2023-04-25T00:02:08;547.53;;;496.83;;
20443;SDS011;10381;53.730;10.010;2023-04-25T00:06:08;496.27;;;449.88;;
20443;SDS011;10381;53.730;10.010;2023-04-25T00:10:09;588.87;;;536.13;;
20443;SDS011;10381;53.730;10.010;2023-04-25T00:14:11;627.83;;;572.67;;
20443;SDS011;10381;53.730;10.010;2023-04-25T00:18:11;629.27;;;573.37;;
20443;SDS011;10381;53.730;10.010;2023-04-25T00:22:12;664.37;;;606.57;;
20443;SDS011;10381;53.730;10.010;2023-04-25T00:26:13;686.70;;;625.83;;
20443;SDS011;10381;53.730;10.010;2023-04-25T00:30:13;671.63;;;612.65;;
20443;SDS011;10381;53.730;10.010;2023-04-25T00:34:14;644.25;;;586.95;;
20443;SDS011;10381;53.730;10.010;2023-04-25T00:38:14;639.43;;;583.57;;
20443;SDS011;10381;53.730;10.010;2023-04-25T00:42:15;680.00;;;620.17;;
20443;SDS011;10381;53.730;10.010;2023-04-25T00:46:15;660.92;;;603.50;;
20443;SDS011;10381;53.730;10.010;2023-04-25T00:50:16;648.23;;;590.63;;
20443;SDS011;10381;53.730;10.010;2023-04-25T00:54:16;637.55;;;581.65;;
20443;SDS011;10381;53.730;10.010;2023-04-25T00:58:17;573.80;;;522.28;;
20443;SDS011;10381;53.730;10.010;2023-04-25T01:02:18;540.80;;;492.80;;
20443;SDS011;10381;53.730;10.010;2023-04-25T01:06:20;463.58;;;421.55;;
20443;SDS011;10381;53.730;10.010;2023-04-25T01:10:22;435.33;;;395.98;;
20443;SDS011;10381;53.730;10.010;2023-04-25T01:14:22;331.25;;;301.92;;
20443;SDS011;10381;53.730;10.010;2023-04-25T01:18:23;220.65;;;200.73;;
20443;SDS011;10381;53.730;10.010;2023-04-25T01:22:23;172.50;;;155.05;;
20443;SDS011;10381;53.730;10.010;2023-04-25T01:26:24;155.00;;;140.43;;
20443;SDS011;10381;53.730;10.010;2023-04-25T01:30:27;86.85;;;78.97;;
20443;SDS011;10381;53.730;10.010;2023-04-25T01:34:28;72.00;;;61.20;;
20443;SDS011;10381;53.730;10.010;2023-04-25T01:38:29;52.55;;;43.55;;
20443;SDS011;10381;53.730;10.010;2023-04-25T01:42:29;57.97;;;42.43;;
20443;SDS011;10381;53.730;10.010;2023-04-25T01:46:30;44.43;;;36.63;;
20443;SDS011;10381;53.730;10.010;2023-04-25T01:50:30;48.38;;;30.30;;
20443;SDS011;10381;53.730;10.010;2023-04-25T01:54:31;44.85;;;28.52;;
20443;SDS011;10381;53.730;10.010;2023-04-25T01:58:31;40.75;;;25.83;;
20443;SDS011;10381;53.730;10.010;2023-04-25T02:02:31;30.20;;;24.60;;
20443;SDS011;10381;53.730;10.010;2023-04-25T02:06:31;33.13;;;21.97;;
20443;SDS011;10381;53.730;10.010;2023-04-25T02:10:32;29.23;;;23.07;;
20443;SDS011;10381;53.730;10.010;2023-04-25T02:14:33;43.78;;;24.33;;
20443;SDS011;10381;53.730;10.010;2023-04-25T02:18:34;31.02;;;22.30;;
20443;SDS011;10381;53.730;10.010;2023-04-25T02:22:36;44.17;;;25.00;;
20443;SDS011;10381;53.730;10.010;2023-04-25T02:26:37;35.27;;;22.17;;
20443;SDS011;10381;53.730;10.010;2023-04-25T02:30:37;30.77;;;23.70;;
20443;SDS011;10381;53.730;10.010;2023-04-25T02:34:37;38.22;;;22.48;;
20443;SDS011;10381;53.730;10.010;2023-04-25T02:38:38;36.57;;;23.03;;
20443;SDS011;10381;53.730;10.010;2023-04-25T02:42:38;30.55;;;22.45;;
20443;SDS011;10381;53.730;10.010;2023-04-25T02:46:39;37.47;;;22.05;;
20443;SDS011;10381;53.730;10.010;2023-04-25T02:50:39;38.10;;;21.70;;
20443;SDS011;10381;53.730;10.010;2023-04-25T02:54:39;29.42;;;21.02;;
20443;SDS011;10381;53.730;10.010;2023-04-25T02:58:40;34.88;;;22.20;;
20443;SDS011;10381;53.730;10.010;2023-04-25T03:02:40;35.37;;;22.43;;
20443;SDS011;10381;53.730;10.010;2023-04-25T03:06:41;26.50;;;21.13;;
20443;SDS011;10381;53.730;10.010;2023-04-25T03:10:41;30.40;;;21.73;;
20443;SDS011;10381;53.730;10.010;2023-04-25T03:14:41;31.73;;;21.13;;
20443;SDS011;10381;53.730;10.010;2023-04-25T03:18:41;33.20;;;22.60;;
20443;SDS011;10381;53.730;10.010;2023-04-25T03:22:42;36.37;;;22.73;;
20443;SDS011;10381;53.730;10.010;2023-04-25T03:26:42;32.17;;;23.42;;
20443;SDS011;10381;53.730;10.010;2023-04-25T03:30:42;37.10;;;22.70;;
20443;SDS011;10381;53.730;10.010;2023-04-25T03:34:42;70.80;;;23.73;;
20443;SDS011;10381;53.730;10.010;2023-04-25T03:38:43;39.72;;;21.58;;
20443;SDS011;10381;53.730;10.010;2023-04-25T03:42:43;35.67;;;21.40;;
20443;SDS011;10381;53.730;10.010;2023-04-25T03:46:43;39.43;;;22.63;;
20443;SDS011;10381;53.730;10.010;2023-04-25T03:50:44;40.17;;;22.67;;
20443;SDS011;10381;53.730;10.010;2023-04-25T03:54:44;38.00;;;23.33;;
20443;SDS011;10381;53.730;10.010;2023-04-25T03:58:44;36.27;;;21.80;;
20443;SDS011;10381;53.730;10.010;2023-04-25T04:02:44;35.53;;;22.03;;
20443;SDS011;10381;53.730;10.010;2023-04-25T04:06:45;33.00;;;20.47;;
20443;SDS011;10381;53.730;10.010;2023-04-25T04:10:45;29.90;;;20.52;;
20443;SDS011;10381;53.730;10.010;2023-04-25T04:14:46;39.73;;;21.30;;
20443;SDS011;10381;53.730;10.010;2023-04-25T04:18:46;35.92;;;21.45;;
20443;SDS011;10381;53.730;10.010;2023-04-25T04:22:46;36.53;;;21.27;;
20443;SDS011;10381;53.730;10.010;2023-04-25T04:26:46;39.10;;;21.03;;
20443;SDS011;10381;53.730;10.010;2023-04-25T04:30:47;35.90;;;20.63;;
20443;SDS011;10381;53.730;10.010;2023-04-25T04:34:47;27.45;;;20.70;;
20443;SDS011;10381;53.730;10.010;2023-04-25T04:38:48;31.02;;;21.17;;
20443;SDS011;10381;53.730;10.010;2023-04-25T04:42:49;33.65;;;21.23;;
20443;SDS011;10381;53.730;10.010;2023-04-25T04:46:49;32.35;;;20.23;;
20443;SDS011;10381;53.730;10.010;2023-04-25T04:50:50;26.17;;;20.30;;
20443;SDS011;10381;53.730;10.010;2023-04-25T04:54:50;38.20;;;20.33;;
20443;SDS011;10381;53.730;10.010;2023-04-25T04:58:51;23.03;;;19.43;;
20443;SDS011;10381;53.730;10.010;2023-04-25T05:02:52;31.70;;;20.15;;
20443;SDS011;10381;53.730;10.010;2023-04-25T05:06:52;29.80;;;20.10;;
20443;SDS011;10381;53.730;10.010;2023-04-25T05:10:52;24.35;;;19.15;;
20443;SDS011;10381;53.730;10.010;2023-04-25T05:14:53;33.55;;;20.20;;
20443;SDS011;10381;53.730;10.010;2023-04-25T05:18:53;29.30;;;20.30;;
20443;SDS011;10381;53.730;10.010;2023-04-25T05:22:53;31.13;;;20.13;;
20443;SDS011;10381;53.730;10.010;2023-04-25T05:26:54;29.07;;;19.27;;
20443;SDS011;10381;53.730;10.010;2023-04-25T05:30:54;29.03;;;19.93;;
20443;SDS011;10381;53.730;10.010;2023-04-25T05:34:54;27.90;;;19.63;;
20443;SDS011;10381;53.730;10.010;2023-04-25T05:38:54;29.98;;;19.42;;
20443;SDS011;10381;53.730;10.010;2023-04-25T05:42:55;27.53;;;19.43;;
20443;SDS011;10381;53.730;10.010;2023-04-25T05:46:55;26.90;;;19.83;;
20443;SDS011;10381;53.730;10.010;2023-04-25T05:50:55;32.85;;;19.55;;
20443;SDS011;10381;53.730;10.010;2023-04-25T05:54:56;37.73;;;20.20;;
20443;SDS011;10381;53.730;10.010;2023-04-25T05:58:56;22.92;;;18.92;;
20443;SDS011;10381;53.730;10.010;2023-04-25T06:02:56;24.43;;;19.30;;
20443;SDS011;10381;53.730;10.010;2023-04-25T06:06:56;27.00;;;19.10;;
20443;SDS011;10381;53.730;10.010;2023-04-25T06:10:57;25.90;;;18.83;;
20443;SDS011;10381;53.730;10.010;2023-04-25T06:14:57;23.20;;;18.88;;
20443;SDS011;10381;53.730;10.010;2023-04-25T06:18:57;22.35;;;19.25;;
20443;SDS011;10381;53.730;10.010;2023-04-25T06:22:58;30.40;;;19.13;;
20443;SDS011;10381;53.730;10.010;2023-04-25T06:26:58;28.80;;;19.73;;
20443;SDS011;10381;53.730;10.010;2023-04-25T06:30:59;34.17;;;19.38;;
20443;SDS011;10381;53.730;10.010;2023-04-25T06:34:59;22.48;;;18.48;;
20443;SDS011;10381;53.730;10.010;2023-04-25T06:39:00;29.95;;;19.10;;
20443;SDS011;10381;53.730;10.010;2023-04-25T06:43:00;22.73;;;18.67;;
20443;SDS011;10381;53.730;10.010;2023-04-25T06:47:00;29.43;;;21.07;;
20443;SDS011;10381;53.730;10.010;2023-04-25T06:51:01;27.00;;;21.75;;
20443;SDS011;10381;53.730;10.010;2023-04-25T06:55:01;41.03;;;20.90;;
20443;SDS011;10381;53.730;10.010;2023-04-25T06:59:02;27.08;;;20.63;;
20443;SDS011;10381;53.730;10.010;2023-04-25T07:03:02;30.97;;;19.50;;
20443;SDS011;10381;53.730;10.010;2023-04-25T07:07:03;21.42;;;19.10;;
20443;SDS011;10381;53.730;10.010;2023-04-25T07:11:03;21.40;;;18.15;;
20443;SDS011;10381;53.730;10.010;2023-04-25T07:15:04;26.53;;;19.20;;
20443;SDS011;10381;53.730;10.010;2023-04-25T07:19:06;23.90;;;19.20;;
20443;SDS011;10381;53.730;10.010;2023-04-25T07:23:06;20.87;;;18.67;;
20443;SDS011;10381;53.730;10.010;2023-04-25T07:27:06;20.63;;;18.53;;
20443;SDS011;10381;53.730;10.010;2023-04-25T07:31:06;28.40;;;18.67;;
20443;SDS011;10381;53.730;10.010;2023-04-25T07:35:07;20.63;;;18.43;;
20443;SDS011;10381;53.730;10.010;2023-04-25T07:39:08;29.15;;;18.77;;
20443;SDS011;10381;53.730;10.010;2023-04-25T07:43:09;25.77;;;19.50;;
20443;SDS011;10381;53.730;10.010;2023-04-25T07:47:12;20.67;;;18.35;;
20443;SDS011;10381;53.730;10.010;2023-04-25T07:51:12;24.77;;;19.20;;
20443;SDS011;10381;53.730;10.010;2023-04-25T07:55:13;20.50;;;18.33;;
20443;SDS011;10381;53.730;10.010;2023-04-25T07:59:13;34.92;;;18.33;;
20443;SDS011;10381;53.730;10.010;2023-04-25T08:03:13;23.53;;;18.97;;
20443;SDS011;10381;53.730;10.010;2023-04-25T08:07:14;21.60;;;18.38;;
20443;SDS011;10381;53.730;10.010;2023-04-25T08:11:14;25.37;;;17.57;;
20443;SDS011;10381;53.730;10.010;2023-04-25T08:15:15;27.02;;;22.48;;
20443;SDS011;10381;53.730;10.010;2023-04-25T08:19:16;22.17;;;19.57;;
20443;SDS011;10381;53.730;10.010;2023-04-25T08:23:16;32.33;;;19.13;;
20443;SDS011;10381;53.730;10.010;2023-04-25T08:27:18;23.67;;;17.93;;
20443;SDS011;10381;53.730;10.010;2023-04-25T08:31:22;25.15;;;18.73;;
20443;SDS011;10381;53.730;10.010;2023-04-25T08:35:22;23.40;;;18.53;;
20443;SDS011;10381;53.730;10.010;2023-04-25T08:39:22;19.10;;;17.17;;
20443;SDS011;10381;53.730;10.010;2023-04-25T08:43:23;24.07;;;17.73;;
20443;SDS011;10381;53.730;10.010;2023-04-25T08:47:25;23.92;;;18.17;;
20443;SDS011;10381;53.730;10.010;2023-04-25T08:51:29;22.58;;;18.15;;
20443;SDS011;10381;53.730;10.010;2023-04-25T08:55:32;18.70;;;16.48;;
20443;SDS011;10381;53.730;10.010;2023-04-25T08:59:33;23.13;;;16.83;;
20443;SDS011;10381;53.730;10.010;2023-04-25T09:03:33;16.85;;;12.95;;
20443;SDS011;10381;53.730;10.010;2023-04-25T09:07:34;15.35;;;11.35;;
20443;SDS011;10381;53.730;10.010;2023-04-25T09:11:35;12.82;;;10.40;;
20443;SDS011;10381;53.730;10.010;2023-04-25T09:15:49;10.85;;;9.73;;
20443;SDS011;10381;53.730;10.010;2023-04-25T09:19:51;14.20;;;10.60;;
20443;SDS011;10381;53.730;10.010;2023-04-25T09:23:51;12.63;;;8.80;;
20443;SDS011;10381;53.730;10.010;2023-04-25T09:27:53;17.58;;;10.13;;
20443;SDS011;10381;53.730;10.010;2023-04-25T09:31:57;11.80;;;8.27;;
20443;SDS011;10381;53.730;10.010;2023-04-25T09:36:11;9.73;;;7.57;;
20443;SDS011;10381;53.730;10.010;2023-04-25T09:40:11;8.87;;;7.13;;
20443;SDS011;10381;53.730;10.010;2023-04-25T09:44:12;7.68;;;6.50;;
20443;SDS011;10381;53.730;10.010;2023-04-25T09:48:20;17.25;;;6.85;;
20443;SDS011;10381;53.730;10.010;2023-04-25T09:52:24;12.80;;;6.88;;
20443;SDS011;10381;53.730;10.010;2023-04-25T09:56:25;15.10;;;6.82;;
20443;SDS011;10381;53.730;10.010;2023-04-25T10:00:32;10.40;;;7.22;;
20443;SDS011;10381;53.730;10.010;2023-04-25T10:04:33;11.23;;;7.22;;
20443;SDS011;10381;53.730;10.010;2023-04-25T10:08:36;21.17;;;7.07;;
20443;SDS011;10381;53.730;10.010;2023-04-25T10:12:37;10.77;;;6.88;;
20443;SDS011;10381;53.730;10.010;2023-04-25T10:16:39;15.73;;;8.25;;
20443;SDS011;10381;53.730;10.010;2023-04-25T10:20:41;12.73;;;7.78;;
20443;SDS011;10381;53.730;10.010;2023-04-25T10:24:41;15.57;;;9.20;;
20443;SDS011;10381;53.730;10.010;2023-04-25T10:28:59;14.85;;;7.00;;
20443;SDS011;10381;53.730;10.010;2023-04-25T10:33:03;7.63;;;6.63;;
20443;SDS011;10381;53.730;10.010;2023-04-25T10:37:17;12.63;;;7.03;;
20443;SDS011;10381;53.730;10.010;2023-04-25T10:41:20;13.52;;;8.35;;
20443;SDS011;10381;53.730;10.010;2023-04-25T10:45:22;17.25;;;12.70;;
20443;SDS011;10381;53.730;10.010;2023-04-25T10:49:33;15.40;;;8.40;;
20443;SDS011;10381;53.730;10.010;2023-04-25T10:53:34;9.55;;;8.27;;
20443;SDS011;10381;53.730;10.010;2023-04-25T10:57:45;15.10;;;8.32;;
20443;SDS011;10381;53.730;10.010;2023-04-25T11:01:51;8.35;;;7.55;;
20443;SDS011;10381;53.730;10.010;2023-04-25T11:05:52;10.43;;;7.72;;
20443;SDS011;10381;53.730;10.010;2023-04-25T11:09:53;8.43;;;7.25;;
20443;SDS011;10381;53.730;10.010;2023-04-25T11:13:53;11.25;;;8.27;;
20443;SDS011;10381;53.730;10.010;2023-04-25T11:17:54;9.30;;;7.37;;
20443;SDS011;10381;53.730;10.010;2023-04-25T11:21:59;9.98;;;6.10;;
20443;SDS011;10381;53.730;10.010;2023-04-25T11:26:06;16.13;;;6.50;;
20443;SDS011;10381;53.730;10.010;2023-04-25T11:30:12;8.05;;;6.40;;
20443;SDS011;10381;53.730;10.010;2023-04-25T11:34:17;14.60;;;7.10;;
20443;SDS011;10381;53.730;10.010;2023-04-25T11:38:18;9.73;;;7.72;;
20443;SDS011;10381;53.730;10.010;2023-04-25T11:42:18;23.08;;;12.50;;
20443;SDS011;10381;53.730;10.010;2023-04-25T11:46:20;7.18;;;6.38;;
20443;SDS011;10381;53.730;10.010;2023-04-25T11:50:20;6.35;;;5.57;;
20443;SDS011;10381;53.730;10.010;2023-04-25T11:54:21;8.73;;;6.03;;
20443;SDS011;10381;53.730;10.010;2023-04-25T11:58:22;11.88;;;6.30;;
20443;SDS011;10381;53.730;10.010;2023-04-25T12:02:24;15.80;;;6.70;;
20443;SDS011;10381;53.730;10.010;2023-04-25T12:06:26;9.10;;;6.28;;
20443;SDS011;10381;53.730;10.010;2023-04-25T12:10:29;6.82;;;6.13;;
20443;SDS011;10381;53.730;10.010;2023-04-25T12:14:30;12.13;;;7.43;;
20443;SDS011;10381;53.730;10.010;2023-04-25T12:18:32;13.75;;;5.85;;
20443;SDS011;10381;53.730;10.010;2023-04-25T12:22:36;6.18;;;5.53;;
20443;SDS011;10381;53.730;10.010;2023-04-25T12:26:46;6.93;;;6.25;;
20443;SDS011;10381;53.730;10.010;2023-04-25T12:30:54;5.40;;;5.00;;
20443;SDS011;10381;53.730;10.010;2023-04-25T12:35:05;7.28;;;6.68;;
20443;SDS011;10381;53.730;10.010;2023-04-25T12:39:06;11.10;;;6.75;;
20443;SDS011;10381;53.730;10.010;2023-04-25T12:43:07;7.30;;;6.63;;
20443;SDS011;10381;53.730;10.010;2023-04-25T12:47:07;8.13;;;7.30;;
20443;SDS011;10381;53.730;10.010;2023-04-25T12:51:07;12.15;;;6.55;;
20443;SDS011;10381;53.730;10.010;2023-04-25T12:55:08;11.73;;;6.17;;
20443;SDS011;10381;53.730;10.010;2023-04-25T12:59:08;18.80;;;8.30;;
20443;SDS011;10381;53.730;10.010;2023-04-25T13:03:09;8.65;;;7.75;;
20443;SDS011;10381;53.730;10.010;2023-04-25T13:07:10;7.82;;;6.63;;
20443;SDS011;10381;53.730;10.010;2023-04-25T13:11:11;8.43;;;5.88;;
20443;SDS011;10381;53.730;10.010;2023-04-25T13:15:12;12.70;;;7.22;;
20443;SDS011;10381;53.730;10.010;2023-04-25T13:19:12;12.65;;;8.30;;
20443;SDS011;10381;53.730;10.010;2023-04-25T13:23:12;18.40;;;7.73;;
20443;SDS011;10381;53.730;10.010;2023-04-25T13:27:13;15.43;;;7.63;;
20443;SDS011;10381;53.730;10.010;2023-04-25T13:31:13;9.38;;;7.68;;
20443;SDS011;10381;53.730;10.010;2023-04-25T13:35:13;14.83;;;6.70;;
20443;SDS011;10381;53.730;10.010;2023-04-25T13:39:14;13.27;;;6.88;;
20443;SDS011;10381;53.730;10.010;2023-04-25T13:43:14;11.73;;;8.60;;
20443;SDS011;10381;53.730;10.010;2023-04-25T13:47:14;15.15;;;8.60;;
20443;SDS011;10381;53.730;10.010;2023-04-25T13:51:15;12.60;;;9.30;;
20443;SDS011;10381;53.730;10.010;2023-04-25T13:55:16;10.90;;;7.60;;
20443;SDS011;10381;53.730;10.010;2023-04-25T13:59:16;8.35;;;6.35;;
20443;SDS011;10381;53.730;10.010;2023-04-25T14:03:17;8.00;;;6.47;;
20443;SDS011;10381;53.730;10.010;2023-04-25T14:07:17;9.23;;;6.57;;
20443;SDS011;10381;53.730;10.010;2023-04-25T14:11:19;10.63;;;6.57;;
20443;SDS011;10381;53.730;10.010;2023-04-25T14:15:19;9.00;;;6.53;;
20443;SDS011;10381;53.730;10.010;2023-04-25T14:19:20;13.27;;;6.43;;
20443;SDS011;10381;53.730;10.010;2023-04-25T14:23:21;10.50;;;8.15;;
20443;SDS011;10381;53.730;10.010;2023-04-25T14:27:21;14.10;;;7.67;;
20443;SDS011;10381;53.730;10.010;2023-04-25T14:31:21;7.37;;;6.43;;
20443;SDS011;10381;53.730;10.010;2023-04-25T14:35:22;10.10;;;6.03;;
20443;SDS011;10381;53.730;10.010;2023-04-25T14:39:22;12.20;;;6.60;;
20443;SDS011;10381;53.730;10.010;2023-04-25T14:43:22;6.60;;;5.70;;
20443;SDS011;10381;53.730;10.010;2023-04-25T14:47:23;11.00;;;6.20;;
20443;SDS011;10381;53.730;10.010;2023-04-25T14:51:23;12.20;;;7.00;;
20443;SDS011;10381;53.730;10.010;2023-04-25T14:55:24;7.47;;;6.50;;
20443;SDS011;10381;53.730;10.010;2023-04-25T14:59:24;12.98;;;7.20;;
20443;SDS011;10381;53.730;10.010;2023-04-25T15:03:25;15.10;;;11.20;;
20443;SDS011;10381;53.730;10.010;2023-04-25T15:07:26;20.80;;;17.98;;
20443;SDS011;10381;53.730;10.010;2023-04-25T15:11:26;19.20;;;17.20;;
20443;SDS011;10381;53.730;10.010;2023-04-25T15:15:26;16.77;;;15.25;;
20443;SDS011;10381;53.730;10.010;2023-04-25T15:19:26;14.90;;;12.17;;
20443;SDS011;10381;53.730;10.010;2023-04-25T15:23:27;8.70;;;7.80;;
20443;SDS011;10381;53.730;10.010;2023-04-25T15:27:27;8.00;;;6.80;;
20443;SDS011;10381;53.730;10.010;2023-04-25T15:31:27;13.52;;;6.97;;
20443;SDS011;10381;53.730;10.010;2023-04-25T15:35:28;6.60;;;5.93;;
20443;SDS011;10381;53.730;10.010;2023-04-25T15:39:28;17.83;;;8.50;;
20443;SDS011;10381;53.730;10.010;2023-04-25T15:43:28;11.73;;;6.53;;
20443;SDS011;10381;53.730;10.010;2023-04-25T15:47:29;9.52;;;6.18;;
20443;SDS011;10381;53.730;10.010;2023-04-25T15:51:29;11.50;;;6.07;;
20443;SDS011;10381;53.730;10.010;2023-04-25T15:55:29;5.60;;;5.20;;
20443;SDS011;10381;53.730;10.010;2023-04-25T15:59:29;10.00;;;5.67;;
20443;SDS011;10381;53.730;10.010;2023-04-25T16:03:30;12.63;;;5.90;;
20443;SDS011;10381;53.730;10.010;2023-04-25T16:07:32;10.98;;;5.97;;
20443;SDS011;10381;53.730;10.010;2023-04-25T16:11:32;9.20;;;6.10;;
20443;SDS011;10381;53.730;10.010;2023-04-25T16:15:32;7.78;;;5.90;;
20443;SDS011;10381;53.730;10.010;2023-04-25T16:19:33;13.65;;;5.25;;
20443;SDS011;10381;53.730;10.010;2023-04-25T16:23:33;7.28;;;4.97;;
20443;SDS011;10381;53.730;10.010;2023-04-25T16:27:33;11.33;;;5.93;;
20443;SDS011;10381;53.730;10.010;2023-04-25T16:31:34;12.43;;;6.28;;
20443;SDS011;10381;53.730;10.010;2023-04-25T16:35:37;12.30;;;11.05;;
20443;SDS011;10381;53.730;10.010;2023-04-25T16:39:38;17.58;;;15.90;;
20443;SDS011;10381;53.730;10.010;2023-04-25T16:43:38;60.47;;;55.10;;
20443;SDS011;10381;53.730;10.010;2023-04-25T16:47:41;242.52;;;222.43;;
20443;SDS011;10381;53.730;10.010;2023-04-25T16:51:41;120.10;;;108.72;;
20443;SDS011;10381;53.730;10.010;2023-04-25T16:55:42;90.43;;;82.43;;
20443;SDS011;10381;53.730;10.010;2023-04-25T16:59:42;53.95;;;48.50;;
20443;SDS011;10381;53.730;10.010;2023-04-25T17:03:42;49.33;;;44.23;;
20443;SDS011;10381;53.730;10.010;2023-04-25T17:07:43;48.90;;;37.22;;
20443;SDS011;10381;53.730;10.010;2023-04-25T17:11:43;39.67;;;34.85;;
20443;SDS011;10381;53.730;10.010;2023-04-25T17:15:44;45.10;;;36.13;;
20443;SDS011;10381;53.730;10.010;2023-04-25T17:19:44;50.03;;;37.47;;
20443;SDS011;10381;53.730;10.010;2023-04-25T17:23:45;51.63;;;42.38;;
20443;SDS011;10381;53.730;10.010;2023-04-25T17:27:46;40.28;;;35.67;;
20443;SDS011;10381;53.730;10.010;2023-04-25T17:31:49;32.53;;;28.97;;
20443;SDS011;10381;53.730;10.010;2023-04-25T17:35:52;36.33;;;26.25;;
20443;SDS011;10381;53.730;10.010;2023-04-25T17:39:53;31.88;;;24.45;;
20443;SDS011;10381;53.730;10.010;2023-04-25T17:43:53;20.80;;;18.70;;
20443;SDS011;10381;53.730;10.010;2023-04-25T17:47:53;23.50;;;18.13;;
20443;SDS011;10381;53.730;10.010;2023-04-25T17:51:54;20.63;;;18.47;;
20443;SDS011;10381;53.730;10.010;2023-04-25T17:55:54;20.13;;;18.25;;
20443;SDS011;10381;53.730;10.010;2023-04-25T17:59:55;21.88;;;19.65;;
20443;SDS011;10381;53.730;10.010;2023-04-25T18:03:56;27.98;;;20.00;;
20443;SDS011;10381;53.730;10.010;2023-04-25T18:07:57;27.87;;;18.57;;
20443;SDS011;10381;53.730;10.010;2023-04-25T18:11:57;21.85;;;19.15;;
20443;SDS011;10381;53.730;10.010;2023-04-25T18:15:57;30.25;;;19.02;;
20443;SDS011;10381;53.730;10.010;2023-04-25T18:19:58;26.73;;;20.23;;
20443;SDS011;10381;53.730;10.010;2023-04-25T18:24:00;33.03;;;19.42;;
20443;SDS011;10381;53.730;10.010;2023-04-25T18:28:02;29.77;;;20.07;;
20443;SDS011;10381;53.730;10.010;2023-04-25T18:32:02;20.70;;;18.60;;
20443;SDS011;10381;53.730;10.010;2023-04-25T18:36:03;20.33;;;18.27;;
20443;SDS011;10381;53.730;10.010;2023-04-25T18:40:04;22.90;;;18.42;;
20443;SDS011;10381;53.730;10.010;2023-04-25T18:44:07;20.75;;;18.63;;
20443;SDS011;10381;53.730;10.010;2023-04-25T18:48:07;25.63;;;18.03;;
20443;SDS011;10381;53.730;10.010;2023-04-25T18:52:08;23.38;;;18.35;;
20443;SDS011;10381;53.730;10.010;2023-04-25T18:56:10;29.02;;;19.27;;
20443;SDS011;10381;53.730;10.010;2023-04-25T19:00:12;25.38;;;18.88;;
20443;SDS011;10381;53.730;10.010;2023-04-25T19:04:14;21.27;;;18.17;;
20443;SDS011;10381;53.730;10.010;2023-04-25T19:08:14;27.38;;;17.75;;
20443;SDS011;10381;53.730;10.010;2023-04-25T19:12:14;22.33;;;17.83;;
20443;SDS011;10381;53.730;10.010;2023-04-25T19:16:15;20.63;;;18.35;;
20443;SDS011;10381;53.730;10.010;2023-04-25T19:20:18;24.73;;;19.10;;
20443;SDS011;10381;53.730;10.010;2023-04-25T19:24:19;26.95;;;18.85;;
20443;SDS011;10381;53.730;10.010;2023-04-25T19:28:20;22.98;;;19.38;;
20443;SDS011;10381;53.730;10.010;2023-04-25T19:32:20;22.48;;;18.77;;
20443;SDS011;10381;53.730;10.010;2023-04-25T19:36:22;24.27;;;18.42;;
20443;SDS011;10381;53.730;10.010;2023-04-25T19:40:24;25.88;;;17.50;;
20443;SDS011;10381;53.730;10.010;2023-04-25T19:44:25;22.85;;;18.95;;
20443;SDS011;10381;53.730;10.010;2023-04-25T19:48:25;19.92;;;17.35;;
20443;SDS011;10381;53.730;10.010;2023-04-25T19:52:26;45.05;;;22.25;;
20443;SDS011;10381;53.730;10.010;2023-04-25T19:56:26;39.47;;;19.45;;
20443;SDS011;10381;53.730;10.010;2023-04-25T20:00:26;32.67;;;20.87;;
20443;SDS011;10381;53.730;10.010;2023-04-25T20:04:27;23.60;;;18.73;;
20443;SDS011;10381;53.730;10.010;2023-04-25T20:08:27;22.27;;;18.38;;
20443;SDS011;10381;53.730;10.010;2023-04-25T20:12:27;24.17;;;19.47;;
20443;SDS011;10381;53.730;10.010;2023-04-25T20:16:28;20.57;;;18.37;;
20443;SDS011;10381;53.730;10.010;2023-04-25T20:20:28;26.40;;;19.83;;
20443;SDS011;10381;53.730;10.010;2023-04-25T20:24:28;21.45;;;17.35;;
20443;SDS011;10381;53.730;10.010;2023-04-25T20:28:29;20.25;;;18.17;;
20443;SDS011;10381;53.730;10.010;2023-04-25T20:32:29;33.30;;;19.27;;
20443;SDS011;10381;53.730;10.010;2023-04-25T20:36:33;24.45;;;18.40;;
20443;SDS011;10381;53.730;10.010;2023-04-25T20:40:34;26.23;;;17.38;;
20443;SDS011;10381;53.730;10.010;2023-04-25T20:44:34;20.15;;;18.15;;
20443;SDS011;10381;53.730;10.010;2023-04-25T20:48:39;20.33;;;18.02;;
20443;SDS011;10381;53.730;10.010;2023-04-25T20:52:39;26.73;;;17.90;;
20443;SDS011;10381;53.730;10.010;2023-04-25T20:56:40;31.08;;;18.92;;
20443;SDS011;10381;53.730;10.010;2023-04-25T21:00:40;23.13;;;17.97;;
20443;SDS011;10381;53.730;10.010;2023-04-25T21:04:41;21.52;;;18.25;;
20443;SDS011;10381;53.730;10.010;2023-04-25T21:08:43;18.95;;;17.15;;
20443;SDS011;10381;53.730;10.010;2023-04-25T21:12:43;19.47;;;17.60;;
20443;SDS011;10381;53.730;10.010;2023-04-25T21:16:48;35.20;;;18.38;;
20443;SDS011;10381;53.730;10.010;2023-04-25T21:20:48;21.20;;;19.02;;
20443;SDS011;10381;53.730;10.010;2023-04-25T21:24:48;20.23;;;18.23;;
20443;SDS011;10381;53.730;10.010;2023-04-25T21:28:49;24.77;;;18.33;;
20443;SDS011;10381;53.730;10.010;2023-04-25T21:32:50;29.33;;;19.88;;
20443;SDS011;10381;53.730;10.010;2023-04-25T21:36:51;25.25;;;20.30;;
20443;SDS011;10381;53.730;10.010;2023-04-25T21:40:51;24.57;;;19.33;;
20443;SDS011;10381;53.730;10.010;2023-04-25T21:44:52;22.00;;;19.80;;
20443;SDS011;10381;53.730;10.010;2023-04-25T21:48:52;23.70;;;21.23;;
20443;SDS011;10381;53.730;10.010;2023-04-25T21:52:53;27.05;;;21.83;;
20443;SDS011;10381;53.730;10.010;2023-04-25T21:56:57;26.63;;;22.50;;
20443;SDS011;10381;53.730;10.010;2023-04-25T22:00:57;25.17;;;20.93;;
20443;SDS011;10381;53.730;10.010;2023-04-25T22:04:58;25.30;;;22.73;;
20443;SDS011;10381;53.730;10.010;2023-04-25T22:08:58;26.27;;;23.00;;
20443;SDS011;10381;53.730;10.010;2023-04-25T22:12:59;24.43;;;21.93;;
20443;SDS011;10381;53.730;10.010;2023-04-25T22:16:59;29.05;;;22.83;;
20443;SDS011;10381;53.730;10.010;2023-04-25T22:21:00;35.90;;;26.05;;
20443;SDS011;10381;53.730;10.010;2023-04-25T22:25:01;31.02;;;25.23;;
20443;SDS011;10381;53.730;10.010;2023-04-25T22:29:01;46.67;;;28.00;;
20443;SDS011;10381;53.730;10.010;2023-04-25T22:33:02;34.33;;;26.38;;
20443;SDS011;10381;53.730;10.010;2023-04-25T22:37:02;30.83;;;25.60;;
20443;SDS011;10381;53.730;10.010;2023-04-25T22:41:04;28.48;;;24.58;;
20443;SDS011;10381;53.730;10.010;2023-04-25T22:45:05;30.10;;;25.27;;
20443;SDS011;10381;53.730;10.010;2023-04-25T22:49:07;29.50;;;23.75;;
20443;SDS011;10381;53.730;10.010;2023-04-25T22:53:07;32.70;;;26.08;;
20443;SDS011;10381;53.730;10.010;2023-04-25T22:57:09;31.90;;;28.40;;
20443;SDS011;10381;53.730;10.010;2023-04-25T23:01:09;37.70;;;26.25;;
20443;SDS011;10381;53.730;10.010;2023-04-25T23:05:10;47.92;;;29.02;;
20443;SDS011;10381;53.730;10.010;2023-04-25T23:09:12;50.05;;;26.20;;
20443;SDS011;10381;53.730;10.010;2023-04-25T23:13:12;43.10;;;27.70;;